KSYR/SYR METAR and TAF weather

Enter ICAO airport designator
Station Type Date Time Source
KSYR METAR 2022/08/16 18:54 UTC NOAA

KSYR 161854Z 02009KT 10SM FEW040 SCT080 BKN140 BKN250 27/15 A3005 RMK AO2 LTG DSNT SW TSE26 SLP169 OCNL LTGICCC DSNT N AND SW CB DSNT N AND SW-W T02670150


Station Type Date Time Source
KSYR Decoded METAR 2022/08/16 18:54 UTC NOAA

SYRACUSE HANCOCK INTERNATIONAL AIRPORT , NY, United States (KSYR) 43-07N 76-06W 127M
Aug 16, 2022 - 02:54 PM EDT / 2022.08.16 1854 UTC
Wind: from the NNE (020 degrees) at 10 MPH (9 KT):0
Visibility: 10 mile(s):0
Sky conditions: mostly cloudy
Weather: Cumulonimbus clouds, lightning observed
Temperature: 80.1 F (26.7 C)
Dew Point: 59.0 F (15.0 C)
Relative Humidity: 48%
Pressure (altimeter): 30.05 in. Hg (1017 hPa)
ob: KSYR 161854Z 02009KT 10SM FEW040 SCT080 BKN140 BKN250 27/15 A3005 RMK AO2 LTG DSNT SW TSE26 SLP169 OCNL LTGICCC DSNT N AND SW CB DSNT N AND SW-W T02670150
cycle: 19

Station Type Date Time Source
KSYR TAF 2022/08/16 18:28 UTC NOAA

TAF KSYR 161725Z 1618/1718 07007KT P6SM VCSH SCT050 BKN150
FM170100 VRB03KT P6SM BKN120
FM171700 06005KT P6SM VCSH BKN050

Example: see airport list